Time;durP1;ratioP1;P1;durP2;ratioP2;P2;SDS_P1;SDS_P2;PMS_P1;PMS_P2;Temp;Humidity;BMP_temperature;BMP_pressure;BME280_temperature;BME280_humidity;BME280_pressure;Samples;Min_cycle;Max_cycle;Signal;HPM_P1;HPM_P2
2022/09/22 00:00:26;;;;;;;6.88;3.88;;;;;;;9.62;75.61;100871.06;30624378;28;111646;-61
2022/09/22 00:15:26;;;;;;;5.70;3.90;;;;;;;9.60;75.88;100867.72;30623799;28;100508;-63
2022/09/22 00:30:27;;;;;;;7.60;4.55;;;;;;;9.26;76.29;100855.00;30621148;28;113785;-64
2022/09/22 00:45:27;;;;;;;8.27;4.30;;;;;;;9.25;76.43;100867.47;30621004;28;101613;-66
2022/09/22 01:00:28;;;;;;;10.00;5.05;;;;;;;9.13;76.58;100845.53;30619233;28;110327;-67
2022/09/22 01:15:41;;;;;;;7.93;4.90;;;;;;;8.87;77.06;100858.59;30617936;28;97763;-64
2022/09/22 01:30:44;;;;;;;9.07;5.07;;;;;;;8.68;77.24;100861.25;30617265;28;96863;-63
2022/09/22 01:45:47;;;;;;;8.37;5.97;;;;;;;8.75;77.96;100859.75;30615088;28;99422;-63
2022/09/22 02:00:55;;;;;;;8.20;5.53;;;;;;;8.61;78.27;100850.34;30613088;28;96702;-63
2022/09/22 02:16:01;;;;;;;8.73;4.70;;;;;;;8.23;78.20;100828.13;30613342;28;97072;-63
2022/09/22 02:31:02;;;;;;;13.10;5.67;;;;;;;7.87;78.40;100838.41;30612101;28;96791;-63
2022/09/22 02:46:12;;;;;;;9.17;6.17;;;;;;;7.48;79.24;100848.91;30610302;28;96917;-63
2022/09/22 03:01:12;;;;;;;13.27;6.43;;;;;;;7.20;79.01;100830.13;30627660;28;96788;-63
2022/09/22 03:16:13;;;;;;;15.27;7.32;;;;;;;6.99;79.57;100831.00;30627492;28;114287;-69
2022/09/22 03:31:13;;;;;;;20.05;7.38;;;;;;;6.77;80.55;100850.50;30626332;28;116262;-66
2022/09/22 03:46:14;;;;;;;12.02;6.93;;;;;;;6.52;81.06;100857.00;30623473;28;112680;-66
2022/09/22 04:01:14;;;;;;;9.10;6.60;;;;;;;6.43;80.93;100862.09;30620441;28;97480;-67
2022/09/22 04:16:16;;;;;;;11.07;6.97;;;;;;;6.37;81.21;100867.91;30619807;28;96894;-66
2022/09/22 04:31:16;;;;;;;13.48;7.53;;;;;;;6.38;81.79;100860.81;30619214;28;96719;-66
2022/09/22 04:46:17;;;;;;;19.67;7.35;;;;;;;6.22;81.83;100885.03;30618915;28;96841;-69
2022/09/22 05:01:17;;;;;;;13.80;7.28;;;;;;;6.29;82.51;100880.94;30617065;28;97806;-65
2022/09/22 05:16:17;;;;;;;15.55;8.50;;;;;;;6.64;82.92;100879.81;30614234;28;117470;-71
2022/09/22 05:31:18;;;;;;;14.52;9.25;;;;;;;7.47;83.31;100887.03;30614746;28;96554;-66
2022/09/22 05:46:18;;;;;;;16.75;10.30;;;;;;;8.39;82.60;100905.41;30610695;28;96890;-64
2022/09/22 06:01:18;;;;;;;13.32;9.27;;;;;;;8.81;81.50;100907.81;30610518;28;115849;-66
2022/09/22 06:16:19;;;;;;;17.33;10.77;;;;;;;9.33;81.07;100911.91;30609103;28;117995;-65
2022/09/22 06:31:20;;;;;;;21.33;10.33;;;;;;;9.63;79.35;100928.63;30620428;28;96717;-63
2022/09/22 06:46:25;;;;;;;22.65;10.73;;;;;;;9.91;79.37;100936.59;30628468;28;96798;-64
2022/09/22 07:01:29;;;;;;;22.23;12.20;;;;;;;11.02;78.79;100952.44;30628107;28;97098;-63
2022/09/22 07:16:30;;;;;;;11.53;7.03;;;;;;;13.00;77.27;100951.38;30625954;28;97603;-70
2022/09/22 07:31:33;;;;;;;8.82;5.40;;;;;;;13.72;75.06;100939.06;30624175;28;121749;-62
2022/09/22 07:46:33;;;;;;;11.60;5.77;;;;;;;15.07;72.35;100957.56;30622602;28;96821;-63
2022/09/22 08:01:35;;;;;;;8.48;4.82;;;;;;;16.18;69.21;100951.53;30620044;28;99231;-62
2022/09/22 08:16:38;;;;;;;10.50;4.33;;;;;;;17.51;65.71;100942.16;30621003;28;97345;-67
2022/09/22 08:31:41;;;;;;;6.80;3.30;;;;;;;18.79;61.65;100957.81;30619333;28;96739;-64
2022/09/22 08:46:46;;;;;;;6.50;2.80;;;;;;;22.08;55.92;100949.59;30615784;28;99643;-67
2022/09/22 09:02:05;;;;;;;5.50;2.20;;;;;;;36.33;33.54;100964.91;30614944;28;96702;-64
2022/09/22 09:17:24;;;;;;;4.50;2.00;;;;;;;42.88;18.36;100947.06;30616770;28;96751;-65
2022/09/22 09:32:51;;;;;;;3.00;1.90;;;;;;;46.29;13.13;100943.41;30612266;28;97454;-66
2022/09/22 09:48:04;;;;;;;4.00;1.20;;;;;;;38.83;17.19;100938.44;30614694;28;97763;-65
2022/09/22 10:03:21;;;;;;;1.93;1.10;;;;;;;46.18;10.91;100938.91;30608931;28;98919;-67
2022/09/22 10:18:28;;;;;;;2.33;0.73;;;;;;;49.04;9.60;100926.47;30608944;28;97468;-63
2022/09/22 10:33:29;;;;;;;1.13;0.30;;;;;;;51.61;7.66;100909.34;30609148;28;97470;-64
2022/09/22 10:48:37;;;;;;;3.90;0.70;;;;;;;49.58;7.61;100910.94;30606434;28;96803;-65
2022/09/22 11:03:49;;;;;;;;;;;;;;;50.07;7.39;100897.38;30606502;28;99266;-64
2022/09/22 11:18:54;;;;;;;2.73;0.60;;;;;;;49.44;7.50;100883.63;30619216;28;96618;-62
2022/09/22 11:34:25;;;;;;;1.20;0.60;;;;;;;49.77;7.39;100859.34;30625064;28;96760;-64
2022/09/22 11:49:44;;;;;;;1.97;0.50;;;;;;;50.91;5.96;100838.13;30625050;28;96739;-66
2022/09/22 12:05:09;;;;;;;2.80;0.70;;;;;;;43.68;9.60;100831.34;30620549;28;96841;-67
2022/09/22 12:20:19;;;;;;;1.37;0.40;;;;;;;42.82;10.27;100819.69;30620979;28;97428;-65
2022/09/22 12:35:28;;;;;;;2.43;0.67;;;;;;;42.28;9.98;100812.00;30617477;28;96812;-66
2022/09/22 12:50:39;;;;;;;1.10;0.30;;;;;;;44.81;8.45;100795.53;30616365;28;97010;-65
2022/09/22 13:05:41;;;;;;;1.43;0.50;;;;;;;43.73;8.78;100802.94;30614892;28;96809;-66
2022/09/22 13:20:41;;;;;;;3.10;0.43;;;;;;;44.62;8.29;100788.97;30613218;28;96655;-65
2022/09/22 13:35:43;;;;;;;1.40;0.40;;;;;;;39.36;10.35;100777.00;30613636;28;96673;-67
2022/09/22 13:50:53;;;;;;;1.90;0.57;;;;;;;32.12;15.25;100761.75;30612718;28;96671;-64
2022/09/22 14:05:55;;;;;;;1.10;0.50;;;;;;;27.67;18.72;100752.34;30610076;28;96873;-64
2022/09/22 14:20:56;;;;;;;3.20;0.50;;;;;;;25.34;21.43;100743.69;30609605;28;97220;-63
2022/09/22 14:36:03;;;;;;;2.37;0.50;;;;;;;23.81;22.72;100735.69;30605970;28;96854;-66
2022/09/22 14:51:05;;;;;;;0.30;0.30;;;;;;;22.11;24.01;100742.13;30616841;28;96849;-66
2022/09/22 15:06:10;;;;;;;1.67;0.50;;;;;;;20.69;25.89;100739.56;30628743;28;96701;-63
2022/09/22 15:21:12;;;;;;;1.17;0.40;;;;;;;19.20;27.66;100731.84;30628396;28;97160;-69
2022/09/22 15:36:14;;;;;;;1.03;0.60;;;;;;;17.72;30.34;100729.22;30623753;28;96729;-65
2022/09/22 15:51:15;;;;;;;2.23;0.50;;;;;;;16.69;32.42;100731.88;30622569;28;96880;-64
2022/09/22 16:06:16;;;;;;;2.05;0.63;;;;;;;15.85;34.51;100733.50;30622546;28;96840;-65
2022/09/22 16:21:32;;;;;;;2.80;0.50;;;;;;;15.08;36.13;100724.97;30616640;28;97047;-66
2022/09/22 16:36:34;;;;;;;4.37;1.00;;;;;;;14.37;38.21;100728.88;30616585;28;97614;-65
2022/09/22 16:51:36;;;;;;;;;;;;;;;13.79;40.34;100744.59;30615101;28;98595;-70
2022/09/22 17:06:37;;;;;;;2.10;0.87;;;;;;;13.23;41.78;100746.53;30614253;28;97440;-66
2022/09/22 17:21:38;;;;;;;2.27;1.17;;;;;;;12.64;43.86;100750.38;30613847;28;96862;-68
2022/09/22 17:36:39;;;;;;;10.77;2.03;;;;;;;12.13;45.80;100750.63;30608711;28;96958;-64
2022/09/22 18:07:05;;;;;;;5.07;2.10;;;;;;;11.13;50.05;100770.84;30603228;28;96980;-70
2022/09/22 18:22:09;;;;;;;6.63;2.90;;;;;;;10.74;51.77;100770.47;30599353;28;96991;-71
2022/09/22 18:37:10;;;;;;;11.05;6.22;;;;;;;10.31;53.25;100786.28;30563094;28;1128622;-67
2022/09/22 18:52:10;;;;;;;40.15;17.98;;;;;;;10.00;55.19;100776.03;30607647;28;96905;-68
2022/09/22 19:22:29;;;;;;;17.43;8.57;;;;;;;9.55;57.34;100782.22;30606930;28;96973;-70
2022/09/22 19:37:30;;;;;;;15.10;8.18;;;;;;;9.25;59.01;100800.13;30613724;28;96775;-73
2022/09/22 19:52:30;;;;;;;16.50;8.68;;;;;;;9.03;59.87;100791.53;30622426;28;96706;-72
2022/09/22 20:07:31;;;;;;;13.40;7.22;;;;;;;8.76;61.41;100787.88;30621008;28;97408;-73
2022/09/22 20:22:31;;;;;;;59.38;17.90;;;;;;;8.51;62.41;100791.13;30622735;28;96592;-71
2022/09/22 20:37:32;;;;;;;32.20;13.30;;;;;;;8.17;62.87;100783.56;30621291;28;97490;-65
2022/09/22 20:52:33;;;;;;;59.40;18.35;;;;;;;7.89;63.96;100791.38;30617416;28;97169;-64
2022/09/22 21:07:34;;;;;;;50.17;18.90;;;;;;;7.64;65.15;100788.28;30617416;28;96646;-65
2022/09/22 21:22:34;;;;;;;46.35;15.27;;;;;;;7.48;65.55;100782.63;30616818;28;96728;-71
2022/09/22 21:37:34;;;;;;;25.92;10.77;;;;;;;7.32;66.40;100783.16;30614775;28;96698;-73
2022/09/22 21:52:37;;;;;;;30.50;10.38;;;;;;;7.31;67.67;100776.19;30614711;28;97211;-72
2022/09/22 22:07:37;;;;;;;17.03;8.37;;;;;;;7.15;67.24;100771.38;30614077;28;96746;-67
2022/09/22 22:22:38;;;;;;;16.88;7.85;;;;;;;6.99;67.96;100771.88;30612925;28;96741;-72
2022/09/22 22:37:38;;;;;;;17.38;9.40;;;;;;;6.83;68.84;100767.88;30610465;28;96657;-72
2022/09/22 22:52:41;;;;;;;17.08;8.02;;;;;;;6.71;69.40;100751.25;30610336;28;96685;-69
2022/09/22 23:07:41;;;;;;;16.80;8.85;;;;;;;6.54;69.94;100744.75;30613120;28;96751;-67
2022/09/22 23:22:41;;;;;;;17.15;8.50;;;;;;;6.46;69.80;100744.53;30628539;28;118286;-72
2022/09/22 23:37:41;;;;;;;13.70;7.18;;;;;;;6.33;70.47;100731.53;30627831;28;96862;-71
2022/09/22 23:52:42;;;;;;;18.00;8.02;;;;;;;6.29;70.99;100738.03;30626304;28;107039;-67
